createdAt,value
2023-04-08T00:01:04.053Z,7.09
2023-04-08T00:03:32.468Z,7.06
2023-04-08T00:06:02.502Z,7.04
2023-04-08T00:08:30.597Z,6.96
2023-04-08T00:10:58.474Z,6.96
2023-04-08T00:13:26.582Z,6.92
2023-04-08T00:15:54.481Z,6.93
2023-04-08T00:18:23.613Z,6.90
2023-04-08T00:20:51.445Z,6.89
2023-04-08T00:23:21.273Z,6.89
2023-04-08T00:25:49.141Z,6.88
2023-04-08T00:28:16.899Z,6.86
2023-04-08T00:30:46.288Z,6.83
2023-04-08T00:33:14.217Z,6.80
2023-04-08T00:35:43.408Z,6.78
2023-04-08T00:38:11.419Z,6.77
2023-04-08T00:40:40.087Z,6.71
2023-04-08T00:43:07.890Z,6.72
2023-04-08T00:45:35.821Z,6.69
2023-04-08T00:48:05.988Z,6.73
2023-04-08T00:50:33.872Z,6.73
2023-04-08T00:53:02.968Z,6.68
2023-04-08T00:55:30.831Z,6.64
2023-04-08T00:57:59.595Z,6.61
2023-04-08T01:00:31.457Z,6.67
2023-04-08T01:03:13.200Z,6.58
2023-04-08T01:05:56.302Z,6.54
2023-04-08T01:08:29.735Z,6.55
2023-04-08T01:11:02.154Z,6.52
2023-04-08T01:13:36.906Z,6.48
2023-04-08T01:16:06.237Z,6.39
2023-04-08T01:18:37.118Z,6.37
2023-04-08T01:21:06.911Z,6.33
2023-04-08T01:23:50.302Z,6.29
2023-04-08T01:26:25.541Z,6.25
2023-04-08T01:28:57.585Z,6.18
2023-04-08T01:31:27.389Z,6.02
2023-04-08T01:33:57.627Z,5.94
2023-04-08T01:36:26.837Z,5.75
2023-04-08T01:38:55.392Z,5.59
2023-04-08T01:41:24.938Z,5.65
2023-04-08T01:43:54.916Z,5.67
2023-04-08T01:46:23.028Z,5.63
2023-04-08T01:48:52.914Z,5.51
2023-04-08T01:51:22.552Z,5.48
2023-04-08T01:53:51.552Z,5.45
2023-04-08T01:56:26.012Z,5.36
2023-04-08T01:58:58.642Z,5.41
2023-04-08T02:01:31.068Z,5.46
2023-04-08T02:04:01.508Z,5.44
2023-04-08T02:06:31.253Z,5.36
2023-04-08T02:09:01.663Z,5.29
2023-04-08T02:11:32.100Z,5.29
2023-04-08T02:14:00.260Z,5.26
2023-04-08T02:16:37.463Z,5.20
2023-04-08T02:19:14.435Z,5.22
2023-04-08T02:21:50.612Z,5.22
2023-04-08T02:24:21.272Z,5.21
2023-04-08T02:26:52.329Z,5.29
2023-04-08T02:29:20.557Z,5.33
2023-04-08T02:31:51.431Z,5.38
2023-04-08T02:34:22.325Z,5.24
2023-04-08T02:36:51.806Z,5.25
2023-04-08T02:39:19.733Z,5.31
2023-04-08T02:41:51.639Z,5.31
2023-04-08T02:44:22.568Z,5.21
2023-04-08T02:46:50.779Z,5.13
2023-04-08T02:49:18.520Z,5.16
2023-04-08T02:51:46.228Z,5.16
2023-04-08T02:54:14.126Z,5.14
2023-04-08T02:56:42.004Z,5.00
2023-04-08T02:59:11.242Z,4.89
2023-04-08T03:01:39.282Z,4.96
2023-04-08T03:04:07.140Z,4.95
2023-04-08T03:06:34.915Z,4.83
2023-04-08T03:09:02.747Z,4.72
2023-04-08T03:11:30.802Z,4.74
2023-04-08T03:13:58.546Z,4.71
2023-04-08T03:16:27.900Z,4.60
2023-04-08T03:18:56.024Z,4.65
2023-04-08T03:21:24.525Z,4.64
2023-04-08T03:23:52.384Z,4.72
2023-04-08T03:26:20.891Z,4.76
2023-04-08T03:28:48.929Z,4.69
2023-04-08T03:31:17.134Z,4.83
2023-04-08T03:33:46.333Z,4.91
2023-04-08T03:36:14.094Z,4.96
2023-04-08T03:38:41.896Z,5.00
2023-04-08T03:41:09.839Z,5.13
2023-04-08T03:43:38.086Z,5.28
2023-04-08T03:46:06.210Z,5.40
2023-04-08T03:48:34.136Z,5.60
2023-04-08T03:51:03.522Z,5.65
2023-04-08T03:53:31.356Z,5.75
2023-04-08T03:55:59.721Z,5.94
2023-04-08T03:58:27.386Z,6.02
2023-04-08T04:00:55.544Z,6.21
2023-04-08T04:03:23.706Z,6.31
2023-04-08T04:05:51.628Z,6.30
2023-04-08T04:08:20.864Z,6.40
2023-04-08T04:10:48.592Z,6.49
2023-04-08T04:13:16.470Z,6.55
2023-04-08T04:15:44.262Z,6.73
2023-04-08T04:18:12.104Z,6.76
2023-04-08T04:20:41.409Z,6.76
2023-04-08T04:23:09.608Z,6.79
2023-04-08T04:25:41.562Z,6.84
2023-04-08T04:28:10.043Z,6.95
2023-04-08T04:30:38.394Z,7.10
2023-04-08T04:33:06.762Z,7.21
2023-04-08T04:35:34.933Z,7.21
2023-04-08T04:38:02.913Z,7.19
2023-04-08T04:40:30.752Z,7.14
2023-04-08T04:42:59.916Z,7.21
2023-04-08T04:45:27.704Z,7.13
2023-04-08T04:47:55.701Z,7.08
2023-04-08T04:50:23.632Z,7.18
2023-04-08T04:52:51.450Z,7.23
2023-04-08T04:55:19.513Z,7.30
2023-04-08T04:57:47.245Z,7.36
2023-04-08T05:00:17.123Z,7.35
2023-04-08T05:02:45.283Z,7.39
2023-04-08T05:05:13.358Z,7.30
2023-04-08T05:07:41.232Z,7.28
2023-04-08T05:10:10.976Z,7.39
2023-04-08T05:12:39.016Z,7.34
2023-04-08T05:15:08.106Z,7.27
2023-04-08T05:17:37.269Z,7.33
2023-04-08T05:20:06.612Z,7.43
2023-04-08T05:22:34.540Z,7.39
2023-04-08T05:25:02.337Z,7.61
2023-04-08T05:27:30.567Z,7.73
2023-04-08T05:29:58.422Z,7.85
2023-04-08T05:32:26.227Z,7.83
2023-04-08T05:34:55.557Z,7.87
2023-04-08T05:37:23.300Z,7.93
2023-04-08T05:39:51.251Z,7.91
2023-04-08T05:42:19.171Z,7.97
2023-04-08T05:44:47.082Z,7.94
2023-04-08T05:47:14.840Z,8.06
2023-04-08T05:49:42.725Z,8.07
2023-04-08T05:52:11.867Z,8.11
2023-04-08T05:54:43.291Z,8.08
2023-04-08T05:57:11.173Z,8.12
2023-04-08T05:59:38.873Z,8.15
2023-04-08T06:02:07.443Z,8.14
2023-04-08T06:04:35.693Z,8.09
2023-04-08T06:07:04.517Z,8.13
2023-04-08T06:09:37.369Z,8.18
2023-04-08T06:12:05.732Z,8.23
2023-04-08T06:14:33.517Z,8.37
2023-04-08T06:17:01.440Z,8.49
2023-04-08T06:19:29.593Z,8.51
2023-04-08T06:21:58.970Z,8.62
2023-04-08T06:24:29.267Z,8.81
2023-04-08T06:26:58.418Z,8.86
2023-04-08T06:29:26.172Z,8.95
2023-04-08T06:31:54.284Z,8.90
2023-04-08T06:34:22.062Z,9.00
2023-04-08T06:36:50.298Z,9.06
2023-04-08T06:39:19.442Z,9.12
2023-04-08T06:41:47.426Z,9.04
2023-04-08T06:44:42.800Z,8.94
2023-04-08T06:47:10.779Z,9.06
2023-04-08T06:49:38.512Z,8.96
2023-04-08T06:52:07.068Z,9.06
2023-04-08T06:54:34.886Z,9.27
2023-04-08T06:57:04.140Z,9.33
2023-04-08T06:59:31.991Z,9.32
2023-04-08T07:02:01.443Z,9.54
2023-04-08T07:04:29.399Z,9.76
2023-04-08T07:06:57.773Z,9.82
2023-04-08T07:09:25.701Z,9.92
2023-04-08T07:11:53.728Z,9.92
2023-04-08T07:14:21.811Z,9.96
2023-04-08T07:16:49.559Z,9.89
2023-04-08T07:19:18.719Z,9.94
2023-04-08T07:24:14.612Z,9.86
2023-04-08T07:26:42.666Z,9.77
2023-04-08T07:29:10.838Z,9.68
2023-04-08T07:31:38.602Z,9.62
2023-04-08T07:34:06.374Z,9.65
2023-04-08T07:36:35.708Z,9.84
2023-04-08T07:39:03.753Z,9.85
2023-04-08T07:41:31.537Z,9.74
2023-04-08T07:43:59.326Z,9.92
2023-04-08T07:46:27.185Z,9.96
2023-04-08T07:48:55.059Z,10.08
2023-04-08T07:51:23.078Z,10.17
2023-04-08T07:53:52.188Z,10.15
2023-04-08T07:56:19.993Z,10.20
2023-04-08T07:58:48.472Z,9.98
2023-04-08T08:01:19.972Z,10.15
2023-04-08T08:03:48.651Z,10.03
2023-04-08T08:06:17.397Z,10.10
2023-04-08T08:08:45.568Z,10.29
2023-04-08T08:11:14.923Z,10.55
2023-04-08T08:13:42.875Z,10.53
2023-04-08T08:16:12.021Z,10.65
2023-04-08T08:18:41.395Z,10.63
2023-04-08T08:21:09.690Z,10.74
2023-04-08T08:23:37.823Z,10.45
2023-04-08T08:26:10.097Z,10.28
2023-04-08T08:28:40.039Z,10.53
2023-04-08T08:31:08.317Z,10.66
2023-04-08T08:33:36.248Z,10.71
2023-04-08T08:36:05.525Z,10.74
2023-04-08T08:38:33.632Z,10.49
2023-04-08T08:41:03.819Z,10.56
2023-04-08T08:43:35.590Z,10.77
2023-04-08T08:46:06.609Z,11.08
2023-04-08T08:48:36.769Z,11.34
2023-04-08T08:51:09.633Z,11.13
2023-04-08T08:53:38.070Z,11.41
2023-04-08T08:58:41.695Z,11.68
2023-04-08T09:01:35.777Z,11.80
2023-04-08T09:04:15.775Z,11.74
2023-04-08T09:06:45.316Z,11.78
2023-04-08T09:09:13.984Z,11.84
2023-04-08T09:11:44.029Z,11.92
2023-04-08T09:14:21.609Z,12.07
2023-04-08T09:16:53.081Z,12.27
2023-04-08T09:19:21.141Z,12.12
2023-04-08T09:22:07.812Z,12.07
2023-04-08T09:24:37.345Z,12.11
2023-04-08T09:27:06.123Z,12.08
2023-04-08T09:29:37.285Z,12.13
2023-04-08T09:32:08.515Z,12.25
2023-04-08T09:34:36.668Z,12.67
2023-04-08T09:37:04.513Z,12.68
2023-04-08T09:39:32.318Z,12.60
2023-04-08T09:42:08.222Z,12.67
2023-04-08T09:44:37.902Z,12.68
2023-04-08T09:47:18.249Z,13.00
2023-04-08T09:49:55.101Z,13.08
2023-04-08T09:52:33.442Z,13.02
2023-04-08T09:55:04.592Z,12.96
2023-04-08T09:57:41.876Z,13.04
2023-04-08T10:00:13.983Z,12.97
2023-04-08T10:02:57.134Z,12.72
2023-04-08T10:05:27.189Z,12.76
2023-04-08T10:07:57.775Z,12.64
2023-04-08T10:10:27.168Z,12.67
2023-04-08T10:12:55.755Z,12.46
2023-04-08T10:15:26.758Z,12.66
2023-04-08T10:18:32.900Z,12.90
2023-04-08T10:21:01.095Z,12.84
2023-04-08T10:23:56.276Z,13.17
2023-04-08T10:26:34.419Z,13.47
2023-04-08T10:29:33.098Z,13.65
2023-04-08T10:32:01.903Z,13.82
2023-04-08T10:34:31.211Z,14.01
2023-04-08T10:36:59.518Z,14.09
2023-04-08T10:39:27.488Z,14.03
2023-04-08T10:41:56.225Z,13.95
2023-04-08T10:44:26.834Z,13.93
2023-04-08T10:46:55.564Z,14.09
2023-04-08T10:49:34.845Z,14.30
2023-04-08T10:52:08.570Z,14.32
2023-04-08T10:54:38.447Z,14.25
2023-04-08T10:57:07.375Z,14.20
2023-04-08T10:59:36.813Z,14.47
2023-04-08T11:02:05.002Z,14.68
2023-04-08T11:04:34.418Z,14.56
2023-04-08T11:07:06.169Z,14.61
2023-04-08T11:09:34.756Z,14.90
2023-04-08T11:12:03.628Z,15.15
2023-04-08T11:14:33.168Z,15.05
2023-04-08T11:17:01.615Z,15.47
2023-04-08T11:19:29.554Z,15.09
2023-04-08T11:21:59.114Z,15.08
2023-04-08T11:24:28.139Z,15.06
2023-04-08T11:26:57.111Z,15.15
2023-04-08T11:29:25.046Z,15.36
2023-04-08T11:31:53.063Z,15.18
2023-04-08T11:34:23.971Z,15.29
2023-04-08T11:36:52.521Z,15.14
2023-04-08T11:39:24.247Z,15.47
2023-04-08T11:41:53.250Z,15.53
2023-04-08T11:44:31.519Z,15.56
2023-04-08T11:46:59.639Z,15.35
2023-04-08T11:49:27.607Z,15.29
2023-04-08T11:51:59.076Z,15.44
2023-04-08T11:54:29.819Z,15.07
2023-04-08T11:56:59.050Z,14.97
2023-04-08T11:59:28.984Z,15.25
2023-04-08T12:01:57.939Z,15.46
2023-04-08T12:04:26.250Z,15.82
2023-04-08T12:06:55.007Z,16.38
2023-04-08T12:09:24.129Z,15.93
2023-04-08T12:11:53.193Z,15.89
2023-04-08T12:14:21.971Z,15.76
2023-04-08T12:16:49.789Z,15.76
2023-04-08T12:19:17.633Z,15.70
2023-04-08T12:21:45.367Z,15.77
2023-04-08T12:24:13.183Z,15.61
2023-04-08T12:26:40.901Z,15.55
2023-04-08T12:29:11.650Z,15.56
2023-04-08T12:31:39.532Z,15.55
2023-04-08T12:34:07.401Z,15.68
2023-04-08T12:36:35.979Z,15.66
2023-04-08T12:39:03.990Z,15.61
2023-04-08T12:41:31.697Z,15.50
2023-04-08T12:43:59.582Z,15.20
2023-04-08T12:46:28.796Z,15.29
2023-04-08T12:49:03.370Z,15.21
2023-04-08T12:51:32.558Z,14.92
2023-04-08T12:54:01.219Z,14.64
2023-04-08T12:56:29.155Z,14.83
2023-04-08T12:58:57.650Z,15.03
2023-04-08T13:01:25.623Z,14.81
2023-04-08T13:03:55.608Z,14.74
2023-04-08T13:06:23.608Z,14.82
2023-04-08T13:08:51.645Z,14.82
2023-04-08T13:11:19.660Z,15.00
2023-04-08T13:13:47.601Z,15.03
2023-04-08T13:16:15.847Z,15.07
2023-04-08T13:18:43.679Z,15.02
2023-04-08T13:21:12.971Z,14.81
2023-04-08T13:23:41.005Z,15.04
2023-04-08T13:26:08.820Z,15.22
2023-04-08T13:28:53.872Z,15.34
2023-04-08T13:31:24.738Z,15.27
2023-04-08T13:33:54.550Z,15.27
2023-04-08T13:36:26.759Z,14.89
2023-04-08T13:38:54.868Z,14.99
2023-04-08T13:41:23.105Z,15.10
2023-04-08T13:43:51.091Z,15.25
2023-04-08T13:46:19.069Z,15.18
2023-04-08T13:48:46.873Z,15.13
2023-04-08T13:51:14.632Z,15.30
2023-04-08T13:53:43.730Z,15.52
2023-04-08T13:56:11.568Z,15.60
2023-04-08T13:58:39.369Z,15.72
2023-04-08T14:01:07.456Z,15.65
2023-04-08T14:03:35.206Z,15.14
2023-04-08T14:06:03.245Z,15.35
2023-04-08T14:08:31.138Z,15.23
2023-04-08T14:11:00.378Z,15.41
2023-04-08T14:13:28.194Z,15.33
2023-04-08T14:15:58.273Z,15.30
2023-04-08T14:18:26.362Z,15.18
2023-04-08T14:20:54.058Z,15.07
2023-04-08T14:23:22.034Z,15.13
2023-04-08T14:25:49.742Z,15.09
2023-04-08T14:28:18.860Z,14.72
2023-04-08T14:30:47.545Z,14.87
2023-04-08T14:33:15.272Z,14.87
2023-04-08T14:35:43.265Z,14.99
2023-04-08T14:38:11.355Z,14.90
2023-04-08T14:40:39.196Z,14.80
2023-04-08T14:43:07.316Z,14.98
2023-04-08T14:45:36.567Z,14.54
2023-04-08T14:48:04.531Z,14.76
2023-04-08T14:50:32.651Z,14.82
2023-04-08T14:53:01.086Z,14.66
2023-04-08T14:55:29.926Z,14.42
2023-04-08T14:57:59.803Z,14.27
2023-04-08T15:00:28.963Z,14.50
2023-04-08T15:02:58.294Z,14.51
2023-04-08T15:05:26.462Z,14.36
2023-04-08T15:07:54.430Z,14.34
2023-04-08T15:10:22.315Z,14.43
2023-04-08T15:12:50.151Z,14.52
2023-04-08T15:15:17.878Z,14.67
2023-04-08T15:17:45.728Z,14.52
2023-04-08T15:20:15.194Z,14.45
2023-04-08T15:22:43.202Z,14.24
2023-04-08T15:25:11.102Z,14.25
2023-04-08T15:27:39.247Z,14.32
2023-04-08T15:30:08.165Z,14.30
2023-04-08T15:32:35.994Z,14.15
2023-04-08T15:35:04.351Z,14.16
2023-04-08T15:37:33.613Z,14.15
2023-04-08T15:40:01.462Z,14.39
2023-04-08T15:42:29.359Z,14.48
2023-04-08T15:44:57.139Z,14.33
2023-04-08T15:47:24.996Z,14.38
2023-04-08T15:49:53.281Z,14.40
2023-04-08T15:52:21.235Z,14.16
2023-04-08T15:54:50.390Z,14.12
2023-04-08T15:57:18.192Z,14.29
2023-04-08T15:59:46.006Z,14.37
2023-04-08T16:02:14.009Z,14.40
2023-04-08T16:04:42.870Z,14.31
2023-04-08T16:07:11.090Z,14.44
2023-04-08T16:09:38.849Z,14.33
2023-04-08T16:12:08.661Z,14.36
2023-04-08T16:14:36.526Z,14.31
2023-04-08T16:17:04.697Z,14.26
2023-04-08T16:19:32.439Z,14.11
2023-04-08T16:22:00.373Z,14.15
2023-04-08T16:24:28.249Z,14.17
2023-04-08T16:26:57.792Z,14.04
2023-04-08T16:29:27.598Z,14.00
2023-04-08T16:31:55.439Z,13.97
2023-04-08T16:34:23.277Z,14.04
2023-04-08T16:36:51.678Z,14.13
2023-04-08T16:39:19.621Z,14.15
2023-04-08T16:41:47.714Z,14.16
2023-04-08T16:44:16.000Z,14.01
2023-04-08T16:46:45.400Z,13.87
2023-04-08T16:49:15.009Z,13.72
2023-04-08T16:51:44.457Z,13.81
2023-04-08T16:54:12.239Z,13.70
2023-04-08T16:56:44.418Z,13.48
2023-04-08T16:59:12.526Z,13.49
2023-04-08T17:01:40.777Z,13.61
2023-04-08T17:04:10.646Z,13.56
2023-04-08T17:06:40.706Z,13.57
2023-04-08T17:09:09.083Z,13.39
2023-04-08T17:11:36.898Z,13.28
2023-04-08T17:14:05.700Z,13.33
2023-04-08T17:16:33.526Z,13.28
2023-04-08T17:19:01.375Z,13.23
2023-04-08T17:21:31.042Z,13.19
2023-04-08T17:23:58.936Z,13.14
2023-04-08T17:26:28.136Z,13.16
2023-04-08T17:28:56.412Z,13.18
2023-04-08T17:31:24.214Z,13.20
2023-04-08T17:33:52.226Z,13.04
2023-04-08T17:36:20.110Z,13.10
2023-04-08T17:38:49.380Z,13.13
2023-04-08T17:41:29.727Z,12.99
2023-04-08T17:44:05.884Z,13.00
2023-04-08T17:46:33.701Z,13.02
2023-04-08T17:49:01.848Z,13.00
2023-04-08T17:51:30.916Z,12.84
2023-04-08T17:54:00.325Z,12.71
2023-04-08T17:56:28.268Z,12.91
2023-04-08T17:58:56.216Z,12.78
2023-04-08T18:01:24.092Z,12.64
2023-04-08T18:03:52.245Z,12.75
2023-04-08T18:06:20.187Z,12.85
2023-04-08T18:08:48.445Z,12.78
2023-04-08T18:11:17.529Z,12.88
2023-04-08T18:13:46.009Z,12.91
2023-04-08T18:16:17.424Z,12.91
2023-04-08T18:18:45.949Z,12.92
2023-04-08T18:21:15.029Z,12.86
2023-04-08T18:23:42.876Z,12.74
2023-04-08T18:26:10.951Z,12.64
2023-04-08T18:28:40.152Z,12.62
2023-04-08T18:31:08.082Z,12.44
2023-04-08T18:33:36.298Z,12.39
2023-04-08T18:36:08.900Z,12.39
2023-04-08T18:38:36.799Z,12.53
2023-04-08T18:41:04.617Z,12.46
2023-04-08T18:43:33.204Z,12.43
2023-04-08T18:46:02.439Z,12.23
2023-04-08T18:48:30.474Z,12.30
2023-04-08T18:50:58.650Z,12.34
2023-04-08T18:53:26.422Z,12.37
2023-04-08T18:55:54.363Z,12.34
2023-04-08T18:58:22.649Z,12.31
2023-04-08T19:00:50.876Z,12.41
2023-04-08T19:03:20.180Z,12.50
2023-04-08T19:05:47.929Z,12.48
2023-04-08T19:08:15.846Z,12.44
2023-04-08T19:10:43.819Z,12.35
2023-04-08T19:13:11.657Z,12.46
2023-04-08T19:15:39.386Z,12.47
2023-04-08T19:18:07.416Z,12.40
2023-04-08T19:20:36.580Z,12.38
2023-04-08T19:23:04.368Z,12.34
2023-04-08T19:25:32.642Z,12.28
2023-04-08T19:28:00.397Z,12.24
2023-04-08T19:30:28.213Z,12.34
2023-04-08T19:32:56.154Z,12.36
2023-04-08T19:35:24.197Z,12.41
2023-04-08T19:37:53.300Z,12.34
2023-04-08T19:40:21.180Z,12.24
2023-04-08T19:42:48.906Z,12.19
2023-04-08T19:45:17.465Z,12.08
2023-04-08T19:47:45.447Z,12.04
2023-04-08T19:50:13.799Z,11.90
2023-04-08T19:52:41.712Z,11.85
2023-04-08T19:55:11.157Z,11.93
2023-04-08T19:57:39.183Z,11.86
2023-04-08T20:00:09.268Z,11.90
2023-04-08T20:02:38.390Z,11.91
2023-04-08T20:05:07.761Z,11.85
2023-04-08T20:07:35.619Z,11.79
2023-04-08T20:10:03.395Z,11.87
2023-04-08T20:12:32.719Z,11.60
2023-04-08T20:15:01.099Z,11.42
2023-04-08T20:17:29.073Z,11.51
2023-04-08T20:19:56.908Z,11.58
2023-04-08T20:22:25.600Z,11.58
2023-04-08T20:24:53.317Z,11.54
2023-04-08T20:27:21.302Z,11.41
2023-04-08T20:29:50.414Z,11.43
2023-04-08T20:32:18.673Z,11.28
2023-04-08T20:34:46.565Z,11.29
2023-04-08T20:37:14.439Z,11.56
2023-04-08T20:39:42.136Z,11.63
2023-04-08T20:42:10.106Z,11.53
2023-04-08T20:44:37.874Z,11.62
2023-04-08T20:47:06.984Z,11.57
2023-04-08T20:49:35.317Z,11.33
2023-04-08T20:52:03.093Z,11.40
2023-04-08T20:54:31.642Z,11.39
2023-04-08T20:57:00.161Z,11.42
2023-04-08T20:59:28.140Z,11.30
2023-04-08T21:01:56.029Z,11.41
2023-04-08T21:04:25.347Z,11.55
2023-04-08T21:06:53.463Z,11.52
2023-04-08T21:09:21.250Z,11.61
2023-04-08T21:11:49.044Z,11.71
2023-04-08T21:14:16.839Z,11.56
2023-04-08T21:16:44.953Z,11.54
2023-04-08T21:19:12.800Z,11.59
2023-04-08T21:21:41.964Z,11.68
2023-04-08T21:24:10.527Z,11.65
2023-04-08T21:26:38.256Z,11.71
2023-04-08T21:29:06.268Z,11.67
2023-04-08T21:31:34.696Z,11.65
2023-04-08T21:34:02.547Z,11.61
2023-04-08T21:36:31.371Z,11.43
2023-04-08T21:39:00.569Z,11.36
2023-04-08T21:41:30.288Z,11.14
2023-04-08T21:44:00.778Z,11.01
2023-04-08T21:46:28.558Z,10.97
2023-04-08T21:48:56.370Z,10.99
2023-04-08T21:51:24.309Z,10.88
2023-04-08T21:53:52.392Z,10.86
2023-04-08T21:56:22.062Z,10.94
2023-04-08T21:58:50.159Z,10.84
2023-04-08T22:01:18.275Z,10.98
2023-04-08T22:03:46.237Z,11.09
2023-04-08T22:06:25.587Z,11.10
2023-04-08T22:08:59.385Z,11.18
2023-04-08T22:11:28.584Z,10.99
2023-04-08T22:13:56.293Z,11.02
2023-04-08T22:16:24.407Z,10.93
2023-04-08T22:18:52.340Z,10.89
2023-04-08T22:21:20.935Z,10.97
2023-04-08T22:23:49.956Z,11.09
2023-04-08T22:26:17.799Z,11.25
2023-04-08T22:28:46.945Z,11.24
2023-04-08T22:31:14.861Z,11.25
2023-04-08T22:33:42.669Z,11.10
2023-04-08T22:36:10.616Z,11.08
2023-04-08T22:38:38.525Z,11.24
2023-04-08T22:41:06.366Z,11.28
2023-04-08T22:43:34.067Z,11.54
2023-04-08T22:46:03.220Z,11.52
2023-04-08T22:48:31.204Z,11.47
2023-04-08T22:50:58.994Z,11.54
2023-04-08T22:53:27.541Z,11.49
2023-04-08T22:55:55.299Z,11.55
2023-04-08T22:58:23.154Z,11.61
2023-04-08T23:00:50.954Z,11.35
2023-04-08T23:03:20.318Z,11.27
2023-04-08T23:05:48.416Z,11.36
2023-04-08T23:08:16.410Z,11.42
2023-04-08T23:10:44.203Z,11.40
2023-04-08T23:13:13.926Z,11.35
2023-04-08T23:15:41.913Z,11.23
2023-04-08T23:18:09.791Z,11.31
2023-04-08T23:20:38.926Z,11.33
2023-04-08T23:23:06.928Z,11.33
2023-04-08T23:25:36.324Z,11.15
2023-04-08T23:28:04.688Z,11.00
2023-04-08T23:30:32.426Z,10.94
2023-04-08T23:33:00.202Z,10.86
2023-04-08T23:35:27.986Z,10.86
2023-04-08T23:37:57.155Z,10.74
2023-04-08T23:40:25.231Z,10.95
2023-04-08T23:42:53.189Z,10.91
2023-04-08T23:45:20.918Z,10.84
2023-04-08T23:47:48.906Z,10.73
2023-04-08T23:50:17.036Z,10.78
2023-04-08T23:52:44.897Z,10.72
2023-04-08T23:55:14.166Z,10.68
2023-04-08T23:57:43.612Z,10.61
